Time;durP1;ratioP1;P1;durP2;ratioP2;P2;SDS_P1;SDS_P2;PMS_P1;PMS_P2;Temp;Humidity;BMP_temperature;BMP_pressure;BME280_temperature;BME280_humidity;BME280_pressure;Samples;Min_cycle;Max_cycle;Signal;HPM_P1;HPM_P2
2024/04/12 00:02:20;;;;;;;;;;;;;;;8.18;45.78;97063.25;5394512;26;20219;-69
2024/04/12 00:04:46;;;;;;;;;;;;;;;8.12;45.79;97063.72;5379624;26;19935;-68
2024/04/12 00:07:14;;;;;;;;;;;;;;;8.10;45.82;97061.25;5394228;26;20354;-69
2024/04/12 00:09:40;;;;;;;;;;;;;;;8.09;46.08;97064.00;5394546;26;19952;-69
2024/04/12 00:12:06;;;;;;;;;;;;;;;8.08;46.00;97064.97;5392817;26;20340;-69
2024/04/12 00:14:32;;;;;;;;;;;;;;;8.11;45.30;97064.72;5394381;26;20175;-69
2024/04/12 00:16:59;;;;;;;;;;;;;;;8.07;45.34;97055.31;5386467;26;19933;-68
2024/04/12 00:19:24;;;;;;;;;;;;;;;8.28;44.80;97060.66;5394175;26;19929;-69
2024/04/12 00:21:52;;;;;;;;;;;;;;;8.14;45.38;97057.34;5394625;26;20365;-69
2024/04/12 00:24:17;;;;;;;;;;;;;;;8.05;45.42;97058.97;5393388;26;19937;-70
2024/04/12 00:26:43;;;;;;;;;;;;;;;8.05;45.90;97053.66;5386590;26;19995;-69
2024/04/12 00:32:05;;;;;;;;;;;;;;;8.02;45.48;97051.25;5390519;26;20729;-69
2024/04/12 00:34:37;;;;;;;;;;;;;;;8.01;45.67;97049.56;5389081;26;19930;-69
2024/04/12 00:37:07;;;;;;;;;;;;;;;8.08;45.62;97046.38;5378646;26;20317;-69
2024/04/12 00:39:35;;;;;;;;;;;;;;;8.16;45.39;97051.94;5386448;26;19999;-69
2024/04/12 00:42:07;;;;;;;;;;;;;;;8.12;45.82;97045.16;5389385;26;19928;-69
2024/04/12 00:44:32;;;;;;;;;;;;;;;8.09;45.63;97040.13;5386998;26;20142;-69
2024/04/12 00:46:59;;;;;;;;;;;;;;;8.10;46.13;97042.66;5393021;26;20003;-69
2024/04/12 00:49:30;;;;;;;;;;;;;;;8.07;45.88;97042.06;5393725;26;19945;-69
2024/04/12 00:51:56;;;;;;;;;;;;;;;8.07;45.83;97042.06;5387888;26;19936;-69
2024/04/12 00:54:21;;;;;;;;;;;;;;;8.03;45.84;97039.66;5391889;26;19953;-69
2024/04/12 00:56:47;;;;;;;;;;;;;;;8.04;45.87;97036.06;5390738;26;19936;-69
2024/04/12 00:59:12;;;;;;;;;;;;;;;8.03;45.54;97028.22;5390547;26;19929;-69
2024/04/12 01:01:37;;;;;;;;;;;;;;;7.96;45.45;97029.69;5392423;26;20332;-69
2024/04/12 01:04:02;;;;;;;;;;;;;;;7.94;45.79;97028.97;5393307;26;19929;-69
2024/04/12 01:06:30;;;;;;;;;;;;;;;7.90;45.48;97023.94;5391226;26;20002;-69
2024/04/12 01:08:57;;;;;;;;;;;;;;;7.85;45.59;97020.81;5393055;26;20795;-69
2024/04/12 01:11:24;;;;;;;;;;;;;;;7.89;45.33;97024.06;5392760;26;19941;-71
2024/04/12 01:13:50;;;;;;;;;;;;;;;7.86;45.63;97016.34;5393675;26;20375;-70
2024/04/12 01:16:15;;;;;;;;;;;;;;;7.84;45.75;97015.63;5393128;26;20230;-68
2024/04/12 01:18:42;;;;;;;;;;;;;;;7.75;46.23;97018.03;5393395;26;20351;-69
2024/04/12 01:21:11;;;;;;;;;;;;;;;7.71;45.73;97024.56;5393268;26;19947;-70
2024/04/12 01:23:48;;;;;;;;;;;;;;;7.73;45.92;97029.75;5392398;26;19936;-70
2024/04/12 01:26:14;;;;;;;;;;;;;;;7.70;46.33;97033.50;5384531;26;20452;-69
2024/04/12 01:28:42;;;;;;;;;;;;;;;7.72;46.68;97026.22;5389370;26;19941;-69
2024/04/12 01:31:18;;;;;;;;;;;;;;;7.77;46.48;97029.41;5394336;26;20320;-70
2024/04/12 01:33:48;;;;;;;;;;;;;;;7.88;47.24;97033.81;5387841;26;20421;-69
2024/04/12 01:36:17;;;;;;;;;;;;;;;7.95;47.56;97023.53;5382037;26;20369;-69
2024/04/12 01:38:42;;;;;;;;;;;;;;;7.99;47.25;97024.97;5377174;26;19999;-70
2024/04/12 01:41:08;;;;;;;;;;;;;;;8.05;46.87;97024.47;5391192;26;19941;-69
2024/04/12 01:43:38;;;;;;;;;;;;;;;8.14;46.97;97027.31;5389995;26;20466;-70
2024/04/12 01:46:04;;;;;;;;;;;;;;;8.21;46.20;97017.88;5381899;26;19935;-69
2024/04/12 01:48:33;;;;;;;;;;;;;;;8.22;46.54;97018.72;5391467;26;20419;-69
2024/04/12 01:51:01;;;;;;;;;;;;;;;8.26;46.46;97021.00;5377050;26;19936;-70
2024/04/12 01:53:27;;;;;;;;;;;;;;;8.28;46.17;97012.91;5392397;26;19961;-69
2024/04/12 01:55:52;;;;;;;;;;;;;;;8.30;46.22;97011.78;5393006;26;19936;-69
2024/04/12 01:58:20;;;;;;;;;;;;;;;8.28;46.04;97010.25;5392841;26;19961;-71
2024/04/12 02:00:45;;;;;;;;;;;;;;;8.22;45.70;97019.56;5391647;26;19998;-68
2024/04/12 02:03:13;;;;;;;;;;;;;;;8.16;45.86;97015.59;5393440;26;20359;-69
2024/04/12 02:05:38;;;;;;;;;;;;;;;8.08;46.00;97018.06;5390241;26;20373;-69
2024/04/12 02:08:07;;;;;;;;;;;;;;;8.04;45.84;97008.69;5392680;26;19929;-69
2024/04/12 02:10:35;;;;;;;;;;;;;;;8.09;46.20;97008.31;5392868;26;19968;-70
2024/04/12 02:13:01;;;;;;;;;;;;;;;7.99;45.80;97003.75;5391494;26;19937;-70
2024/04/12 02:15:27;;;;;;;;;;;;;;;7.97;45.97;97007.50;5390500;26;19980;-69
2024/04/12 02:17:58;;;;;;;;;;;;;;;7.87;46.20;97005.63;5389549;26;19929;-69
2024/04/12 02:20:28;;;;;;;;;;;;;;;7.87;46.72;97002.97;5392569;26;19933;-70
2024/04/12 02:22:56;;;;;;;;;;;;;;;7.84;46.58;96999.72;5385206;26;20408;-70
2024/04/12 02:25:21;;;;;;;;;;;;;;;7.77;46.46;96994.94;5391927;26;19963;-69
2024/04/12 02:27:46;;;;;;;;;;;;;;;7.73;46.56;96985.53;5391787;26;19944;-69
2024/04/12 02:30:12;;;;;;;;;;;;;;;7.71;46.98;96994.53;5394563;26;19935;-70
2024/04/12 02:32:39;;;;;;;;;;;;;;;7.61;46.90;96989.16;5391146;26;19929;-69
2024/04/12 02:35:04;;;;;;;;;;;;;;;7.56;47.23;96986.91;5391789;26;20365;-70
2024/04/12 02:37:29;;;;;;;;;;;;;;;7.54;47.26;96992.31;5392076;26;20252;-69
2024/04/12 02:39:55;;;;;;;;;;;;;;;7.51;47.71;96986.41;5388641;26;19943;-69
2024/04/12 02:42:22;;;;;;;;;;;;;;;7.50;48.48;96990.91;5388511;26;19943;-69
2024/04/12 02:44:47;;;;;;;;;;;;;;;7.49;48.21;96993.66;5388415;26;19940;-70
2024/04/12 02:47:14;;;;;;;;;;;;;;;7.50;47.42;96992.69;5388534;26;19929;-70
2024/04/12 02:49:40;;;;;;;;;;;;;;;7.43;48.48;96996.81;5391311;26;19969;-69
2024/04/12 02:52:05;;;;;;;;;;;;;;;7.38;48.52;96992.72;5391489;26;19932;-70
2024/04/12 02:54:30;;;;;;;;;;;;;;;7.38;48.42;96999.84;5392422;26;19936;-70
2024/04/12 02:56:56;;;;;;;;;;;;;;;7.34;47.99;96995.75;5382636;26;19984;-69
2024/04/12 02:59:22;;;;;;;;;;;;;;;7.25;48.51;97000.81;5393313;26;19953;-69
2024/04/12 03:01:47;;;;;;;;;;;;;;;7.20;48.44;96995.03;5385294;26;19936;-69
2024/04/12 03:04:12;;;;;;;;;;;;;;;7.21;47.69;96987.94;5394008;26;20010;-69
2024/04/12 03:06:38;;;;;;;;;;;;;;;7.17;47.43;96997.09;5395002;26;19929;-69
2024/04/12 03:09:05;;;;;;;;;;;;;;;7.10;48.62;96996.72;5386756;26;19941;-69
2024/04/12 03:11:37;;;;;;;;;;;;;;;7.09;48.02;96995.91;5390924;26;19930;-69
2024/04/12 03:14:08;;;;;;;;;;;;;;;6.86;51.06;97005.66;5388951;26;19929;-69
2024/04/12 03:16:37;;;;;;;;;;;;;;;6.97;51.80;97002.19;5384943;26;20410;-69
2024/04/12 03:19:07;;;;;;;;;;;;;;;6.95;51.08;97015.53;5388900;26;19930;-69
2024/04/12 03:21:33;;;;;;;;;;;;;;;7.08;51.02;97006.63;5384962;26;20298;-69
2024/04/12 03:23:58;;;;;;;;;;;;;;;7.00;52.25;97002.75;5390396;26;19940;-69
2024/04/12 03:26:24;;;;;;;;;;;;;;;7.07;52.19;96991.69;5389640;26;19929;-69
2024/04/12 03:28:53;;;;;;;;;;;;;;;7.12;51.57;96986.88;5389994;26;20395;-68
2024/04/12 03:31:19;;;;;;;;;;;;;;;7.08;49.94;96993.38;5384419;26;19941;-69
2024/04/12 03:33:44;;;;;;;;;;;;;;;6.96;49.94;96990.72;5392802;26;19969;-69
2024/04/12 03:39:24;;;;;;;;;;;;;;;6.98;49.85;96988.81;5381972;26;20309;-70
2024/04/12 03:41:43;;;;;;;;;;;;;;;6.92;49.33;96988.44;5391609;26;20240;-69
2024/04/12 03:44:09;;;;;;;;;;;;;;;6.89;49.68;96987.72;5390771;26;19929;-69
2024/04/12 03:46:35;;;;;;;;;;;;;;;6.86;49.27;96995.06;5395042;26;19936;-70
2024/04/12 03:49:01;;;;;;;;;;;;;;;6.82;49.07;97004.22;5375787;26;19996;-69
2024/04/12 03:51:27;;;;;;;;;;;;;;;6.79;49.68;97000.00;5389238;26;19929;-69
2024/04/12 03:54:10;;;;;;;;;;;;;;;6.69;50.05;96999.03;5393940;26;20519;-69
2024/04/12 03:56:36;;;;;;;;;;;;;;;6.63;49.71;96990.59;5394203;26;20184;-70
2024/04/12 03:59:01;;;;;;;;;;;;;;;6.61;49.39;96997.84;5393692;26;19936;-69
2024/04/12 04:01:31;;;;;;;;;;;;;;;6.59;48.39;96983.00;5392157;26;19955;-70
2024/04/12 04:03:57;;;;;;;;;;;;;;;6.56;48.25;96984.09;5393407;26;19936;-69
2024/04/12 04:06:22;;;;;;;;;;;;;;;6.54;48.24;96982.53;5390623;26;19933;-68
2024/04/12 04:08:48;;;;;;;;;;;;;;;6.44;48.74;96979.72;5393797;26;20029;-69
2024/04/12 04:11:15;;;;;;;;;;;;;;;6.41;48.63;96983.47;5393948;26;19929;-68
2024/04/12 04:13:41;;;;;;;;;;;;;;;6.28;47.99;96990.63;5390528;26;19936;-70
2024/04/12 04:16:07;;;;;;;;;;;;;;;6.16;49.31;96988.00;5392304;26;20746;-70
2024/04/12 04:18:32;;;;;;;;;;;;;;;6.13;50.93;96994.31;5393464;26;20250;-69
2024/04/12 04:21:06;;;;;;;;;;;;;;;6.18;51.45;96994.00;5392753;26;20139;-69
2024/04/12 04:23:38;;;;;;;;;;;;;;;6.17;51.21;96987.03;5393301;26;19929;-69
2024/04/12 04:26:08;;;;;;;;;;;;;;;6.22;51.56;96987.50;5393338;26;20420;-69
2024/04/12 04:28:33;;;;;;;;;;;;;;;6.25;51.35;96987.28;5392256;26;20088;-70
2024/04/12 04:31:05;;;;;;;;;;;;;;;6.27;50.48;96994.25;5385907;26;19970;-69
2024/04/12 04:33:31;;;;;;;;;;;;;;;6.20;50.25;96985.94;5392600;26;20179;-69
2024/04/12 04:35:56;;;;;;;;;;;;;;;6.23;50.36;96994.47;5392382;26;19929;-69
2024/04/12 04:38:24;;;;;;;;;;;;;;;6.21;51.51;96987.63;5390346;26;20056;-68
2024/04/12 04:40:57;;;;;;;;;;;;;;;6.23;50.84;96983.06;5393390;26;19936;-67
2024/04/12 04:43:23;;;;;;;;;;;;;;;6.20;50.11;96981.50;5392239;26;19929;-69
2024/04/12 04:45:48;;;;;;;;;;;;;;;6.19;49.80;96986.91;5385574;26;19929;-67
2024/04/12 04:48:14;;;;;;;;;;;;;;;6.15;49.22;96991.56;5391965;26;19941;-67
2024/04/12 04:50:41;;;;;;;;;;;;;;;6.12;50.20;96989.16;5388033;26;20370;-66
2024/04/12 04:53:11;;;;;;;;;;;;;;;6.16;50.25;96990.63;5393569;26;19935;-68
2024/04/12 04:55:38;;;;;;;;;;;;;;;6.14;51.25;96997.81;5384884;26;20383;-67
2024/04/12 04:58:08;;;;;;;;;;;;;;;6.22;51.01;97003.38;5392929;26;19947;-68
2024/04/12 05:00:40;;;;;;;;;;;;;;;6.30;50.62;97010.75;5392229;26;19979;-69
2024/04/12 05:03:07;;;;;;;;;;;;;;;6.43;51.38;97015.91;5391363;26;20443;-69
2024/04/12 05:05:33;;;;;;;;;;;;;;;6.63;52.21;97018.88;5392002;26;20422;-68
2024/04/12 05:07:59;;;;;;;;;;;;;;;6.87;52.67;97012.66;5389738;26;19939;-69
2024/04/12 05:10:24;;;;;;;;;;;;;;;7.11;51.72;97003.72;5377898;26;19929;-70
2024/04/12 05:12:50;;;;;;;;;;;;;;;7.31;51.18;97006.59;5392447;26;20767;-70
2024/04/12 05:18:03;;;;;;;;;;;;;;;7.57;48.72;96998.31;5393079;26;19982;-69
2024/04/12 05:20:40;;;;;;;;;;;;;;;7.65;48.93;96998.56;5393551;26;20407;-69
2024/04/12 05:23:08;;;;;;;;;;;;;;;7.77;48.60;97005.53;5393841;26;19933;-69
2024/04/12 05:25:34;;;;;;;;;;;;;;;7.95;49.13;96996.19;5392486;26;19944;-69
2024/04/12 05:28:00;;;;;;;;;;;;;;;8.21;50.38;97001.97;5393480;26;20375;-70
2024/04/12 05:30:25;;;;;;;;;;;;;;;8.37;50.48;97001.50;5382397;26;19929;-69
2024/04/12 05:32:50;;;;;;;;;;;;;;;8.57;49.84;96999.00;5393148;26;20204;-69
2024/04/12 05:35:17;;;;;;;;;;;;;;;8.75;49.71;97009.84;5393655;26;20384;-68
2024/04/12 05:37:43;;;;;;;;;;;;;;;8.97;49.89;97015.13;5392742;26;20119;-70
2024/04/12 05:40:12;;;;;;;;;;;;;;;9.08;50.83;97013.22;5378107;26;20248;-69
2024/04/12 05:42:41;;;;;;;;;;;;;;;9.28;50.39;97007.97;5391894;26;19940;-70
2024/04/12 05:45:07;;;;;;;;;;;;;;;9.60;50.37;97019.38;5396894;26;19939;-70
2024/04/12 05:47:32;;;;;;;;;;;;;;;9.66;50.85;97020.66;5392653;26;20362;-69
2024/04/12 05:50:01;;;;;;;;;;;;;;;9.38;51.65;97015.97;5386425;26;19936;-70
2024/04/12 05:52:29;;;;;;;;;;;;;;;9.57;51.61;97022.31;5390938;26;19936;-72
2024/04/12 05:54:55;;;;;;;;;;;;;;;9.64;50.22;97026.09;5390239;26;20067;-71
2024/04/12 05:57:21;;;;;;;;;;;;;;;9.59;50.53;97029.16;5391223;26;19929;-71
2024/04/12 05:59:47;;;;;;;;;;;;;;;9.84;50.27;97032.28;5384902;26;19965;-70
2024/04/12 06:02:16;;;;;;;;;;;;;;;10.15;49.98;97026.03;5390913;26;20473;-72
2024/04/12 06:04:47;;;;;;;;;;;;;;;10.12;48.93;97022.78;5381296;26;19929;-71
2024/04/12 06:07:13;;;;;;;;;;;;;;;10.12;48.88;97026.28;5391398;26;19929;-70
2024/04/12 06:09:38;;;;;;;;;;;;;;;10.13;49.29;97025.31;5389533;26;19939;-71
2024/04/12 06:12:06;;;;;;;;;;;;;;;10.46;48.91;97022.34;5391180;26;19929;-70
2024/04/12 06:14:33;;;;;;;;;;;;;;;10.52;48.74;97029.75;5392773;26;20402;-70
2024/04/12 06:17:00;;;;;;;;;;;;;;;10.59;48.79;97027.38;5392423;26;19961;-70
2024/04/12 06:19:25;;;;;;;;;;;;;;;10.67;48.63;97024.81;5392610;26;19937;-71
2024/04/12 06:21:51;;;;;;;;;;;;;;;10.61;48.62;97023.56;5390371;26;20185;-71
2024/04/12 06:24:17;;;;;;;;;;;;;;;10.59;49.08;97020.22;5392533;26;20545;-71
2024/04/12 06:26:47;;;;;;;;;;;;;;;10.68;49.09;97026.50;5383633;26;19936;-72
2024/04/12 06:29:16;;;;;;;;;;;;;;;10.67;49.34;97030.16;5392481;26;19935;-70
2024/04/12 06:31:42;;;;;;;;;;;;;;;10.55;49.38;97032.16;5394708;26;20436;-70
2024/04/12 06:34:12;;;;;;;;;;;;;;;10.67;49.34;97026.66;5394994;26;19936;-70
2024/04/12 06:36:45;;;;;;;;;;;;;;;10.75;49.08;97026.78;5394808;26;20417;-71
2024/04/12 06:39:10;;;;;;;;;;;;;;;10.88;49.15;97034.44;5391952;26;19936;-71
2024/04/12 06:41:35;;;;;;;;;;;;;;;11.00;49.48;97035.09;5392618;26;19929;-71
2024/04/12 06:44:03;;;;;;;;;;;;;;;10.89;49.10;97038.78;5397178;26;19937;-71
2024/04/12 06:46:28;;;;;;;;;;;;;;;10.96;49.44;97033.72;5383047;26;19929;-72
2024/04/12 06:49:07;;;;;;;;;;;;;;;9.89;51.68;97028.38;5395147;26;19929;-70
2024/04/12 06:51:43;;;;;;;;;;;;;;;10.67;49.92;97027.47;5388407;26;20373;-70
2024/04/12 06:54:09;;;;;;;;;;;;;;;10.92;49.00;97030.50;5396212;26;20412;-72
2024/04/12 06:56:34;;;;;;;;;;;;;;;11.07;48.96;97022.88;5391276;26;19932;-70
2024/04/12 06:59:07;;;;;;;;;;;;;;;11.19;48.31;97022.72;5394190;26;19956;-71
2024/04/12 07:01:33;;;;;;;;;;;;;;;11.21;48.23;97015.41;5391314;26;19928;-72
2024/04/12 07:04:05;;;;;;;;;;;;;;;10.90;48.27;97021.81;5395314;26;19994;-71
2024/04/12 07:06:32;;;;;;;;;;;;;;;11.93;46.73;97020.00;5395023;26;20185;-72
2024/04/12 07:08:57;;;;;;;;;;;;;;;11.10;48.36;97025.28;5395299;26;20320;-70
2024/04/12 07:11:24;;;;;;;;;;;;;;;11.82;46.79;97021.09;5385611;26;19941;-72
2024/04/12 07:13:53;;;;;;;;;;;;;;;12.03;46.60;97019.94;5395025;26;19936;-72
2024/04/12 07:16:18;;;;;;;;;;;;;;;12.24;46.87;97019.66;5394539;26;19936;-71
2024/04/12 07:18:44;;;;;;;;;;;;;;;11.93;46.44;97016.53;5395068;26;19937;-70
2024/04/12 07:21:15;;;;;;;;;;;;;;;11.80;47.11;97022.22;5394511;26;19936;-70
2024/04/12 07:23:46;;;;;;;;;;;;;;;12.02;46.53;97026.28;5395239;26;19929;-70
2024/04/12 07:26:14;;;;;;;;;;;;;;;11.13;48.23;97042.81;5394284;26;19929;-71
2024/04/12 07:28:40;;;;;;;;;;;;;;;10.22;50.47;97042.25;5396552;26;20149;-71
2024/04/12 07:31:06;;;;;;;;;;;;;;;11.17;49.34;97038.00;5391632;26;19999;-71
2024/04/12 07:33:33;;;;;;;;;;;;;;;10.36;50.54;97036.50;5394185;26;19933;-70
2024/04/12 07:35:59;;;;;;;;;;;;;;;11.45;48.64;97035.34;5393289;26;19929;-71
2024/04/12 07:38:24;;;;;;;;;;;;;;;11.49;48.69;97034.91;5387429;26;20547;-71
2024/04/12 07:40:52;;;;;;;;;;;;;;;10.64;50.48;97043.75;5392464;26;19929;-71
2024/04/12 07:43:17;;;;;;;;;;;;;;;11.07;48.98;97044.19;5394250;26;19937;-71
2024/04/12 07:45:43;;;;;;;;;;;;;;;10.84;49.82;97039.22;5393745;26;20284;-70
2024/04/12 07:50:46;;;;;;;;;;;;;;;11.63;48.32;97022.06;5385394;26;20228;-71
2024/04/12 07:55:44;;;;;;;;;;;;;;;11.95;48.55;97020.72;5393182;26;20427;-72
2024/04/12 07:58:09;;;;;;;;;;;;;;;11.20;49.44;97027.06;5396345;26;19929;-71
2024/04/12 08:00:45;;;;;;;;;;;;;;;10.42;51.93;97039.59;5388775;26;19951;-72
2024/04/12 08:03:15;;;;;;;;;;;;;;;10.84;50.94;97036.56;5394774;26;20011;-70
2024/04/12 08:05:59;;;;;;;;;;;;;;;9.58;54.23;97038.13;5389986;26;20002;-71
2024/04/12 08:08:27;;;;;;;;;;;;;;;9.70;54.65;97033.50;5386933;26;19957;-71
2024/04/12 08:10:56;;;;;;;;;;;;;;;9.78;54.85;97035.50;5391745;26;19929;-72
2024/04/12 08:13:28;;;;;;;;;;;;;;;10.15;53.36;97041.13;5393327;26;19936;-71
2024/04/12 08:15:59;;;;;;;;;;;;;;;10.71;52.09;97034.19;5385043;26;20285;-71
2024/04/12 08:18:25;;;;;;;;;;;;;;;10.97;50.92;97040.72;5390396;26;20086;-71
2024/04/12 08:20:55;;;;;;;;;;;;;;;10.62;52.34;97033.22;5387263;26;20348;-71
2024/04/12 08:23:29;;;;;;;;;;;;;;;8.81;56.00;97043.00;5393696;26;19936;-71
2024/04/12 08:25:58;;;;;;;;;;;;;;;10.51;52.76;97048.53;5384399;26;19953;-71
2024/04/12 08:28:23;;;;;;;;;;;;;;;10.96;50.76;97052.38;5394264;26;19936;-71
2024/04/12 08:30:51;;;;;;;;;;;;;;;11.16;50.48;97034.53;5384133;26;19929;-71
2024/04/12 08:33:28;;;;;;;;;;;;;;;10.50;52.42;97045.03;5392907;26;19964;-72
2024/04/12 08:35:55;;;;;;;;;;;;;;;11.00;51.21;97051.94;5391046;26;20058;-71
2024/04/12 08:38:24;;;;;;;;;;;;;;;10.75;51.92;97054.22;5389522;26;19936;-71
2024/04/12 08:40:52;;;;;;;;;;;;;;;10.79;51.62;97056.63;5392599;26;19929;-71
2024/04/12 08:43:17;;;;;;;;;;;;;;;10.26;53.96;97056.97;5394041;26;19929;-71
2024/04/12 08:45:43;;;;;;;;;;;;;;;10.16;53.66;97059.63;5389144;26;20075;-71
2024/04/12 08:48:09;;;;;;;;;;;;;;;10.00;55.27;97052.19;5393843;26;19929;-72
2024/04/12 08:50:35;;;;;;;;;;;;;;;10.48;53.27;97058.47;5394001;26;19928;-71
2024/04/12 08:53:04;;;;;;;;;;;;;;;9.97;55.78;97063.09;5391253;26;19933;-71
2024/04/12 08:55:30;;;;;;;;;;;;;;;9.01;57.96;97077.66;5388774;26;20553;-71
2024/04/12 08:57:57;;;;;;;;;;;;;;;8.67;59.85;97081.34;5386310;26;19928;-71
2024/04/12 09:00:28;;;;;;;;;;;;;;;8.23;60.79;97079.59;5387298;26;19929;-72
2024/04/12 09:03:02;;;;;;;;;;;;;;;8.28;60.97;97095.16;5390888;26;20478;-72
2024/04/12 09:05:27;;;;;;;;;;;;;;;8.38;61.14;97082.81;5392928;26;19943;-71
2024/04/12 09:07:56;;;;;;;;;;;;;;;9.04;59.12;97080.03;5392321;26;20793;-71
2024/04/12 09:10:22;;;;;;;;;;;;;;;8.94;59.52;97082.59;5388910;26;20190;-72
2024/04/12 09:12:47;;;;;;;;;;;;;;;9.69;57.26;97081.53;5381545;26;19945;-71
2024/04/12 09:15:23;;;;;;;;;;;;;;;9.84;57.10;97077.50;5388784;26;19969;-71
2024/04/12 09:17:58;;;;;;;;;;;;;;;10.90;53.71;97082.25;5379535;26;19985;-72
2024/04/12 09:20:30;;;;;;;;;;;;;;;10.98;53.97;97077.06;5381520;26;20258;-71
2024/04/12 09:22:55;;;;;;;;;;;;;;;11.45;52.92;97081.53;5389560;26;20078;-72
2024/04/12 09:25:26;;;;;;;;;;;;;;;11.68;53.30;97082.94;5391764;26;19983;-72
2024/04/12 09:27:51;;;;;;;;;;;;;;;11.15;52.92;97087.97;5387331;26;19960;-72
2024/04/12 09:33:16;;;;;;;;;;;;;;;11.36;53.30;97085.91;5383682;26;20015;-72
2024/04/12 09:35:45;;;;;;;;;;;;;;;11.92;52.43;97082.38;5392583;26;19940;-72
2024/04/12 09:38:16;;;;;;;;;;;;;;;11.89;51.39;97094.22;5362941;26;19929;-72
2024/04/12 09:40:41;;;;;;;;;;;;;;;11.50;52.98;97086.41;5378580;26;20290;-72
2024/04/12 09:46:05;;;;;;;;;;;;;;;12.71;49.19;97080.97;5382740;26;19984;-72
2024/04/12 10:37:47;;;;;;;;;;;;;;;11.42;55.06;97076.47;5379282;26;20019;-75
2024/04/12 10:40:12;;;;;;;;;;;;;;;12.83;50.89;97074.34;5384769;26;19928;-72
2024/04/12 10:42:38;;;;;;;;;;;;;;;13.06;49.45;97068.53;5386035;26;20286;-72
2024/04/12 10:45:07;;;;;;;;;;;;;;;13.39;49.08;97075.84;5391356;26;20049;-72
2024/04/12 10:47:39;;;;;;;;;;;;;;;13.73;48.79;97079.50;5379860;26;20512;-74
2024/04/12 10:50:04;;;;;;;;;;;;;;;13.77;47.45;97079.00;5389467;26;20437;-73
2024/04/12 10:52:30;;;;;;;;;;;;;;;13.02;48.90;97077.84;5388234;26;19941;-72
2024/04/12 10:54:58;;;;;;;;;;;;;;;12.91;49.79;97079.75;5384613;26;19998;-72
2024/04/12 10:57:24;;;;;;;;;;;;;;;12.51;50.14;97078.47;5385984;26;19929;-71
2024/04/12 10:59:51;;;;;;;;;;;;;;;13.38;49.11;97069.69;5387133;26;19935;-71
2024/04/12 11:02:17;;;;;;;;;;;;;;;13.90;47.20;97059.84;5388886;26;19936;-71
2024/04/12 11:07:27;;;;;;;;;;;;;;;14.36;44.51;97055.88;5389542;26;20552;-74
2024/04/12 11:09:57;;;;;;;;;;;;;;;15.70;42.85;97062.66;5390208;26;19995;-73
2024/04/12 11:12:28;;;;;;;;;;;;;;;15.13;44.27;97050.28;5385530;26;22345;-72
2024/04/12 11:15:12;;;;;;;;;;;;;;;15.87;42.74;97046.44;5353507;26;20071;-72
2024/04/12 11:31:16;;;;;;;;;;;;;;;14.85;43.84;97032.75;5391908;26;20385;-74
2024/04/12 11:33:45;;;;;;;;;;;;;;;14.11;44.89;97021.03;5392222;26;19933;-74
2024/04/12 11:36:11;;;;;;;;;;;;;;;14.61;45.02;97029.06;5379802;26;19937;-73
2024/04/12 11:38:44;;;;;;;;;;;;;;;16.03;41.21;97025.88;5377880;26;20015;-74
2024/04/12 11:41:15;;;;;;;;;;;;;;;15.65;42.57;97021.25;5390479;26;20288;-72
2024/04/12 11:43:41;;;;;;;;;;;;;;;15.02;43.34;97022.00;5380131;26;20524;-73
2024/04/12 11:46:08;;;;;;;;;;;;;;;13.67;45.93;97025.63;5392558;26;19998;-74
2024/04/12 11:48:33;;;;;;;;;;;;;;;12.41;49.67;97025.13;5383407;26;19952;-73
2024/04/12 11:50:59;;;;;;;;;;;;;;;14.18;45.52;97021.22;5382752;26;20259;-72
2024/04/12 11:53:25;;;;;;;;;;;;;;;15.04;43.12;97018.13;5383805;26;20458;-74
2024/04/12 11:55:50;;;;;;;;;;;;;;;14.06;44.46;97020.69;5348917;26;20646;-72
2024/04/12 11:58:15;;;;;;;;;;;;;;;14.60;43.59;97024.72;5388232;26;20374;-71
2024/04/12 12:00:41;;;;;;;;;;;;;;;12.93;46.97;97024.28;5388356;26;19961;-71
2024/04/12 12:03:06;;;;;;;;;;;;;;;14.05;45.02;97021.72;5387733;26;20287;-75
2024/04/12 12:05:37;;;;;;;;;;;;;;;14.34;44.93;97015.00;5386213;26;20278;-71
2024/04/12 12:08:04;;;;;;;;;;;;;;;14.50;44.11;97019.53;5382977;26;20388;-72
2024/04/12 12:10:34;;;;;;;;;;;;;;;13.43;46.27;97021.06;5394309;26;19953;-71
2024/04/12 12:13:01;;;;;;;;;;;;;;;13.62;46.04;97011.91;5381782;26;20406;-70
2024/04/12 12:15:26;;;;;;;;;;;;;;;14.38;44.47;97019.03;5387559;26;20374;-70
2024/04/12 12:17:52;;;;;;;;;;;;;;;14.31;44.56;97015.38;5381845;26;20341;-71
2024/04/12 12:20:18;;;;;;;;;;;;;;;13.53;47.00;97010.22;5391722;26;19929;-71
2024/04/12 12:22:44;;;;;;;;;;;;;;;13.75;47.08;97010.59;5389300;26;19940;-72
2024/04/12 12:25:09;;;;;;;;;;;;;;;13.83;46.37;97005.25;5387130;26;20251;-72
2024/04/12 12:27:34;;;;;;;;;;;;;;;13.18;46.94;97007.56;5382029;26;22673;-72
2024/04/12 12:30:02;;;;;;;;;;;;;;;14.29;45.55;97006.66;5392094;26;19933;-71
2024/04/12 12:32:31;;;;;;;;;;;;;;;14.77;44.48;96998.75;5388654;26;20189;-71
2024/04/12 12:34:57;;;;;;;;;;;;;;;13.53;47.18;97010.22;5385172;26;19939;-71
2024/04/12 12:37:24;;;;;;;;;;;;;;;12.92;47.97;97017.28;5389371;26;19929;-72
2024/04/12 12:39:51;;;;;;;;;;;;;;;12.05;50.52;97009.09;5382197;26;19936;-72
2024/04/12 12:42:16;;;;;;;;;;;;;;;13.33;48.62;97010.50;5388932;26;19936;-71
2024/04/12 12:44:43;;;;;;;;;;;;;;;13.54;47.38;96999.31;5389276;26;19933;-72
2024/04/12 12:47:09;;;;;;;;;;;;;;;13.92;47.30;97003.47;5389906;26;20253;-72
2024/04/12 12:49:46;;;;;;;;;;;;;;;14.34;45.94;96998.94;5389034;26;19929;-73
2024/04/12 12:52:11;;;;;;;;;;;;;;;14.24;45.28;96999.13;5383104;26;19937;-71
2024/04/12 12:54:43;;;;;;;;;;;;;;;14.98;43.89;96997.34;5393604;26;19948;-73
2024/04/12 12:57:09;;;;;;;;;;;;;;;15.07;43.51;96987.44;5393025;26;20257;-72
2024/04/12 12:59:40;;;;;;;;;;;;;;;15.99;42.54;96983.28;5390652;26;19929;-71
2024/04/12 13:02:06;;;;;;;;;;;;;;;15.74;42.63;96985.31;5389267;26;19937;-71
2024/04/12 13:04:33;;;;;;;;;;;;;;;15.58;41.59;96976.34;5389128;26;19935;-71
2024/04/12 13:06:59;;;;;;;;;;;;;;;16.00;41.18;96960.78;5383076;26;20491;-71
2024/04/12 13:09:25;;;;;;;;;;;;;;;16.03;41.16;96958.72;5385782;26;20342;-72
2024/04/12 13:11:50;;;;;;;;;;;;;;;16.20;40.86;96962.97;5391129;26;19973;-72
2024/04/12 13:14:17;;;;;;;;;;;;;;;16.11;41.34;96964.88;5393261;26;19929;-72
2024/04/12 13:16:43;;;;;;;;;;;;;;;15.97;40.89;96957.59;5392542;26;20393;-72
2024/04/12 13:19:15;;;;;;;;;;;;;;;14.07;46.18;96966.13;5391847;26;20323;-72
2024/04/12 13:21:40;;;;;;;;;;;;;;;13.61;47.02;96956.72;5389377;26;19942;-72
2024/04/12 13:24:07;;;;;;;;;;;;;;;14.93;44.39;96954.16;5392445;26;20343;-71
2024/04/12 13:26:33;;;;;;;;;;;;;;;15.06;43.44;96948.22;5392990;26;20463;-72
2024/04/12 13:28:58;;;;;;;;;;;;;;;15.12;43.82;96942.16;5392522;26;19937;-72
2024/04/12 13:31:24;;;;;;;;;;;;;;;15.85;42.83;96946.47;5393747;26;19948;-71
2024/04/12 13:33:50;;;;;;;;;;;;;;;13.70;46.71;96950.38;5392856;26;20006;-71
2024/04/12 13:36:19;;;;;;;;;;;;;;;14.64;44.67;96947.47;5392913;26;19929;-72
2024/04/12 13:38:44;;;;;;;;;;;;;;;14.69;44.30;96948.63;5389536;26;19929;-71
2024/04/12 13:41:10;;;;;;;;;;;;;;;15.17;43.96;96945.16;5386829;26;20656;-72
2024/04/12 13:43:39;;;;;;;;;;;;;;;15.08;43.49;96947.03;5392063;26;19933;-71
2024/04/12 13:51:33;;;;;;;;;;;;;;;14.40;45.86;96955.41;5381425;26;20002;-71
2024/04/12 13:53:58;;;;;;;;;;;;;;;14.63;45.48;96953.84;5387177;26;19929;-71
2024/04/12 13:58:52;;;;;;;;;;;;;;;14.67;44.52;96950.66;5392209;26;20478;-75
2024/04/12 14:01:22;;;;;;;;;;;;;;;14.53;45.91;96951.38;5393733;26;19929;-75
2024/04/12 14:03:48;;;;;;;;;;;;;;;14.06;45.50;96951.09;5337024;26;19929;-74
2024/04/12 14:06:14;;;;;;;;;;;;;;;13.61;48.07;96951.38;5393427;26;19957;-74
2024/04/12 14:08:39;;;;;;;;;;;;;;;14.37;46.47;96953.06;5392484;26;19929;-75
2024/04/12 14:11:04;;;;;;;;;;;;;;;14.68;45.11;96946.97;5393403;26;19961;-75
2024/04/12 14:13:30;;;;;;;;;;;;;;;15.21;43.84;96935.75;5393171;26;19999;-76
2024/04/12 14:15:57;;;;;;;;;;;;;;;14.97;44.79;96934.88;5392891;26;19929;-74
2024/04/12 14:18:23;;;;;;;;;;;;;;;14.71;44.66;96940.44;5391256;26;19936;-74
2024/04/12 14:20:49;;;;;;;;;;;;;;;14.06;46.20;96943.06;5390417;26;20464;-75
2024/04/12 14:23:14;;;;;;;;;;;;;;;14.08;46.73;96946.41;5392741;26;19945;-76
2024/04/12 14:25:39;;;;;;;;;;;;;;;14.41;45.71;96938.31;5392917;26;20294;-75
2024/04/12 14:28:04;;;;;;;;;;;;;;;13.50;47.86;96938.31;5391827;26;19936;-76